sensor_id;sensor_type;location;lat;lon;timestamp;temperature;humidity
19680;DHT22;9989;48.962;9.182;2024-01-16T00:01:45;1.70;99.90
19680;DHT22;9989;48.962;9.182;2024-01-16T00:04:10;1.60;99.90
19680;DHT22;9989;48.962;9.182;2024-01-16T00:06:42;1.60;99.90
19680;DHT22;9989;48.962;9.182;2024-01-16T00:09:09;1.60;99.90
19680;DHT22;9989;48.962;9.182;2024-01-16T00:11:43;1.50;99.90
19680;DHT22;9989;48.962;9.182;2024-01-16T00:14:09;1.50;99.90
19680;DHT22;9989;48.962;9.182;2024-01-16T00:16:45;1.50;99.90
19680;DHT22;9989;48.962;9.182;2024-01-16T00:19:12;1.40;99.90
19680;DHT22;9989;48.962;9.182;2024-01-16T00:21:41;1.30;99.90
19680;DHT22;9989;48.962;9.182;2024-01-16T00:24:07;1.40;99.90
19680;DHT22;9989;48.962;9.182;2024-01-16T00:26:33;1.30;99.90
19680;DHT22;9989;48.962;9.182;2024-01-16T00:28:59;1.30;99.90
19680;DHT22;9989;48.962;9.182;2024-01-16T00:31:26;1.30;99.90
19680;DHT22;9989;48.962;9.182;2024-01-16T00:33:51;1.20;99.90
19680;DHT22;9989;48.962;9.182;2024-01-16T00:36:17;1.20;99.90
19680;DHT22;9989;48.962;9.182;2024-01-16T00:38:42;1.20;99.90
19680;DHT22;9989;48.962;9.182;2024-01-16T00:41:08;1.20;99.90
19680;DHT22;9989;48.962;9.182;2024-01-16T00:43:34;1.20;99.90
19680;DHT22;9989;48.962;9.182;2024-01-16T00:46:01;1.20;99.90
19680;DHT22;9989;48.962;9.182;2024-01-16T00:48:26;1.20;99.90
19680;DHT22;9989;48.962;9.182;2024-01-16T00:50:52;1.20;99.90
19680;DHT22;9989;48.962;9.182;2024-01-16T00:53:18;1.20;99.90
19680;DHT22;9989;48.962;9.182;2024-01-16T00:55:43;1.10;99.90
19680;DHT22;9989;48.962;9.182;2024-01-16T00:58:09;1.10;99.90
19680;DHT22;9989;48.962;9.182;2024-01-16T01:00:35;1.10;99.90
19680;DHT22;9989;48.962;9.182;2024-01-16T01:03:03;1.00;99.90
19680;DHT22;9989;48.962;9.182;2024-01-16T01:05:29;1.00;99.90
19680;DHT22;9989;48.962;9.182;2024-01-16T01:07:55;1.00;99.90
19680;DHT22;9989;48.962;9.182;2024-01-16T01:10:21;1.00;99.90
19680;DHT22;9989;48.962;9.182;2024-01-16T01:12:47;0.90;99.90
19680;DHT22;9989;48.962;9.182;2024-01-16T01:15:12;1.00;99.90
19680;DHT22;9989;48.962;9.182;2024-01-16T01:17:39;0.90;99.90
19680;DHT22;9989;48.962;9.182;2024-01-16T01:20:07;0.90;99.90
19680;DHT22;9989;48.962;9.182;2024-01-16T01:22:33;0.90;99.90
19680;DHT22;9989;48.962;9.182;2024-01-16T01:24:59;0.90;99.90
19680;DHT22;9989;48.962;9.182;2024-01-16T01:27:24;0.90;99.90
19680;DHT22;9989;48.962;9.182;2024-01-16T01:29:50;0.90;99.90
19680;DHT22;9989;48.962;9.182;2024-01-16T01:32:16;0.90;99.90
19680;DHT22;9989;48.962;9.182;2024-01-16T01:34:42;0.90;99.90
19680;DHT22;9989;48.962;9.182;2024-01-16T01:37:07;0.90;99.90
19680;DHT22;9989;48.962;9.182;2024-01-16T01:39:33;0.90;99.90
19680;DHT22;9989;48.962;9.182;2024-01-16T01:41:59;0.80;99.90
19680;DHT22;9989;48.962;9.182;2024-01-16T01:44:25;0.80;99.90
19680;DHT22;9989;48.962;9.182;2024-01-16T01:46:51;0.80;99.90
19680;DHT22;9989;48.962;9.182;2024-01-16T01:49:19;0.80;99.90
19680;DHT22;9989;48.962;9.182;2024-01-16T01:51:45;0.80;99.90
19680;DHT22;9989;48.962;9.182;2024-01-16T01:54:11;0.90;99.90
19680;DHT22;9989;48.962;9.182;2024-01-16T01:56:38;0.90;99.90
19680;DHT22;9989;48.962;9.182;2024-01-16T01:59:05;0.90;99.90
19680;DHT22;9989;48.962;9.182;2024-01-16T02:01:34;1.00;99.90
19680;DHT22;9989;48.962;9.182;2024-01-16T02:04:00;1.00;99.90
19680;DHT22;9989;48.962;9.182;2024-01-16T02:06:26;1.00;99.90
19680;DHT22;9989;48.962;9.182;2024-01-16T02:08:52;1.00;99.90
19680;DHT22;9989;48.962;9.182;2024-01-16T02:11:18;1.10;99.90
19680;DHT22;9989;48.962;9.182;2024-01-16T02:13:43;1.10;99.90
19680;DHT22;9989;48.962;9.182;2024-01-16T02:16:22;1.10;99.90
19680;DHT22;9989;48.962;9.182;2024-01-16T02:18:48;1.10;99.90
19680;DHT22;9989;48.962;9.182;2024-01-16T02:21:22;1.10;99.90
19680;DHT22;9989;48.962;9.182;2024-01-16T02:23:48;1.10;99.90
19680;DHT22;9989;48.962;9.182;2024-01-16T02:26:23;1.10;99.90
19680;DHT22;9989;48.962;9.182;2024-01-16T02:28:48;1.10;99.90
19680;DHT22;9989;48.962;9.182;2024-01-16T02:31:14;1.10;99.90
19680;DHT22;9989;48.962;9.182;2024-01-16T02:33:40;1.10;99.90
19680;DHT22;9989;48.962;9.182;2024-01-16T02:36:05;1.00;99.90
19680;DHT22;9989;48.962;9.182;2024-01-16T02:38:31;0.90;99.90
19680;DHT22;9989;48.962;9.182;2024-01-16T02:40:57;0.90;99.90
19680;DHT22;9989;48.962;9.182;2024-01-16T02:43:22;0.90;99.90
19680;DHT22;9989;48.962;9.182;2024-01-16T02:45:48;0.90;99.90
19680;DHT22;9989;48.962;9.182;2024-01-16T02:48:14;0.90;99.90
19680;DHT22;9989;48.962;9.182;2024-01-16T02:50:40;0.90;99.90
19680;DHT22;9989;48.962;9.182;2024-01-16T02:53:05;0.90;99.90
19680;DHT22;9989;48.962;9.182;2024-01-16T02:55:31;0.90;99.90
19680;DHT22;9989;48.962;9.182;2024-01-16T02:57:56;0.80;99.90
19680;DHT22;9989;48.962;9.182;2024-01-16T03:00:22;0.80;99.90
19680;DHT22;9989;48.962;9.182;2024-01-16T03:02:48;0.80;99.90
19680;DHT22;9989;48.962;9.182;2024-01-16T03:05:14;0.80;99.90
19680;DHT22;9989;48.962;9.182;2024-01-16T03:07:40;0.80;99.90
19680;DHT22;9989;48.962;9.182;2024-01-16T03:10:06;0.80;99.90
19680;DHT22;9989;48.962;9.182;2024-01-16T03:12:32;0.80;99.90
19680;DHT22;9989;48.962;9.182;2024-01-16T03:14:58;0.80;99.90
19680;DHT22;9989;48.962;9.182;2024-01-16T03:17:24;0.80;99.90
19680;DHT22;9989;48.962;9.182;2024-01-16T03:19:49;0.80;99.90
19680;DHT22;9989;48.962;9.182;2024-01-16T03:22:15;0.80;99.90
19680;DHT22;9989;48.962;9.182;2024-01-16T03:24:40;0.70;99.90
19680;DHT22;9989;48.962;9.182;2024-01-16T03:27:06;0.70;99.90
19680;DHT22;9989;48.962;9.182;2024-01-16T03:29:32;0.80;99.90
19680;DHT22;9989;48.962;9.182;2024-01-16T03:31:59;0.80;99.90
19680;DHT22;9989;48.962;9.182;2024-01-16T03:34:24;0.80;99.90
19680;DHT22;9989;48.962;9.182;2024-01-16T03:36:50;0.80;99.90
19680;DHT22;9989;48.962;9.182;2024-01-16T03:39:16;0.80;99.90
19680;DHT22;9989;48.962;9.182;2024-01-16T03:41:41;0.80;99.90
19680;DHT22;9989;48.962;9.182;2024-01-16T03:44:07;0.80;99.90
19680;DHT22;9989;48.962;9.182;2024-01-16T03:46:33;0.80;99.90
19680;DHT22;9989;48.962;9.182;2024-01-16T03:48:58;0.80;99.90
19680;DHT22;9989;48.962;9.182;2024-01-16T03:51:24;0.80;99.90
19680;DHT22;9989;48.962;9.182;2024-01-16T03:53:49;0.70;99.90
19680;DHT22;9989;48.962;9.182;2024-01-16T03:56:16;0.70;99.90
19680;DHT22;9989;48.962;9.182;2024-01-16T03:58:42;0.70;99.90
19680;DHT22;9989;48.962;9.182;2024-01-16T04:01:08;0.60;99.90
19680;DHT22;9989;48.962;9.182;2024-01-16T04:03:34;0.60;99.90
19680;DHT22;9989;48.962;9.182;2024-01-16T04:06:04;0.50;99.90
19680;DHT22;9989;48.962;9.182;2024-01-16T04:08:39;0.50;99.90
19680;DHT22;9989;48.962;9.182;2024-01-16T04:11:04;0.50;99.90
19680;DHT22;9989;48.962;9.182;2024-01-16T04:13:30;0.40;99.90
19680;DHT22;9989;48.962;9.182;2024-01-16T04:15:55;0.40;99.90
19680;DHT22;9989;48.962;9.182;2024-01-16T04:18:21;0.40;99.90
19680;DHT22;9989;48.962;9.182;2024-01-16T04:20:47;0.40;99.90
19680;DHT22;9989;48.962;9.182;2024-01-16T04:23:12;0.40;99.90
19680;DHT22;9989;48.962;9.182;2024-01-16T04:25:38;0.40;99.90
19680;DHT22;9989;48.962;9.182;2024-01-16T04:28:03;0.30;99.90
19680;DHT22;9989;48.962;9.182;2024-01-16T04:30:29;0.30;99.90
19680;DHT22;9989;48.962;9.182;2024-01-16T04:32:55;0.30;99.90
19680;DHT22;9989;48.962;9.182;2024-01-16T04:35:20;0.30;99.90
19680;DHT22;9989;48.962;9.182;2024-01-16T04:37:47;0.30;99.90
19680;DHT22;9989;48.962;9.182;2024-01-16T04:40:13;0.20;99.90
19680;DHT22;9989;48.962;9.182;2024-01-16T04:42:38;0.20;99.90
19680;DHT22;9989;48.962;9.182;2024-01-16T04:45:04;0.20;99.90
19680;DHT22;9989;48.962;9.182;2024-01-16T04:47:30;0.10;99.90
19680;DHT22;9989;48.962;9.182;2024-01-16T04:49:56;0.10;99.90
19680;DHT22;9989;48.962;9.182;2024-01-16T04:52:22;0.10;99.90
19680;DHT22;9989;48.962;9.182;2024-01-16T04:54:47;0.00;99.90
19680;DHT22;9989;48.962;9.182;2024-01-16T04:57:13;0.00;99.90
19680;DHT22;9989;48.962;9.182;2024-01-16T04:59:38;0.00;99.90
19680;DHT22;9989;48.962;9.182;2024-01-16T05:02:04;0.00;99.90
19680;DHT22;9989;48.962;9.182;2024-01-16T05:04:30;-0.10;99.90
19680;DHT22;9989;48.962;9.182;2024-01-16T05:06:55;-0.10;99.90
19680;DHT22;9989;48.962;9.182;2024-01-16T05:09:21;-0.10;99.90
19680;DHT22;9989;48.962;9.182;2024-01-16T05:11:46;-0.20;99.90
19680;DHT22;9989;48.962;9.182;2024-01-16T05:14:12;-0.20;99.90
19680;DHT22;9989;48.962;9.182;2024-01-16T05:16:38;-0.20;99.90
19680;DHT22;9989;48.962;9.182;2024-01-16T05:19:03;-0.20;99.90
19680;DHT22;9989;48.962;9.182;2024-01-16T05:21:29;-0.20;99.90
19680;DHT22;9989;48.962;9.182;2024-01-16T05:23:54;-0.20;99.90
19680;DHT22;9989;48.962;9.182;2024-01-16T05:26:20;-0.20;99.90
19680;DHT22;9989;48.962;9.182;2024-01-16T05:28:46;-0.30;99.90
19680;DHT22;9989;48.962;9.182;2024-01-16T05:31:11;-0.30;99.90
19680;DHT22;9989;48.962;9.182;2024-01-16T05:33:37;-0.30;99.90
19680;DHT22;9989;48.962;9.182;2024-01-16T05:36:03;-0.30;99.90
19680;DHT22;9989;48.962;9.182;2024-01-16T05:38:28;-0.40;99.90
19680;DHT22;9989;48.962;9.182;2024-01-16T05:40:54;-0.40;99.90
19680;DHT22;9989;48.962;9.182;2024-01-16T05:43:20;-0.40;99.90
19680;DHT22;9989;48.962;9.182;2024-01-16T05:45:45;-0.40;99.90
19680;DHT22;9989;48.962;9.182;2024-01-16T05:48:11;-0.50;99.90
19680;DHT22;9989;48.962;9.182;2024-01-16T05:50:37;-0.40;99.90
19680;DHT22;9989;48.962;9.182;2024-01-16T05:53:03;-0.40;99.90
19680;DHT22;9989;48.962;9.182;2024-01-16T05:55:29;-0.40;99.90
19680;DHT22;9989;48.962;9.182;2024-01-16T05:57:57;-0.40;99.90
19680;DHT22;9989;48.962;9.182;2024-01-16T06:00:24;-0.30;99.90
19680;DHT22;9989;48.962;9.182;2024-01-16T06:02:50;-0.30;99.90
19680;DHT22;9989;48.962;9.182;2024-01-16T06:05:16;-0.30;99.90
19680;DHT22;9989;48.962;9.182;2024-01-16T06:07:42;-0.30;99.90
19680;DHT22;9989;48.962;9.182;2024-01-16T06:10:08;-0.30;99.90
19680;DHT22;9989;48.962;9.182;2024-01-16T06:12:34;-0.30;99.90
19680;DHT22;9989;48.962;9.182;2024-01-16T06:15:00;-0.30;99.90
19680;DHT22;9989;48.962;9.182;2024-01-16T06:17:25;-0.30;99.90
19680;DHT22;9989;48.962;9.182;2024-01-16T06:19:51;-0.30;99.90
19680;DHT22;9989;48.962;9.182;2024-01-16T06:22:17;-0.30;99.90
19680;DHT22;9989;48.962;9.182;2024-01-16T06:24:42;-0.30;99.90
19680;DHT22;9989;48.962;9.182;2024-01-16T06:27:08;-0.20;99.90
19680;DHT22;9989;48.962;9.182;2024-01-16T06:29:34;-0.20;99.90
19680;DHT22;9989;48.962;9.182;2024-01-16T06:32:00;-0.20;99.90
19680;DHT22;9989;48.962;9.182;2024-01-16T06:34:27;-0.20;99.90
19680;DHT22;9989;48.962;9.182;2024-01-16T06:36:52;-0.20;99.90
19680;DHT22;9989;48.962;9.182;2024-01-16T06:39:18;-0.20;99.90
19680;DHT22;9989;48.962;9.182;2024-01-16T06:41:44;-0.20;99.90
19680;DHT22;9989;48.962;9.182;2024-01-16T06:44:09;-0.20;99.90
19680;DHT22;9989;48.962;9.182;2024-01-16T06:46:35;-0.20;99.90
19680;DHT22;9989;48.962;9.182;2024-01-16T06:49:00;-0.10;99.90
19680;DHT22;9989;48.962;9.182;2024-01-16T06:51:27;-0.10;99.90
19680;DHT22;9989;48.962;9.182;2024-01-16T06:53:53;-0.10;99.90
19680;DHT22;9989;48.962;9.182;2024-01-16T06:56:18;-0.10;99.90
19680;DHT22;9989;48.962;9.182;2024-01-16T06:58:44;-0.10;99.90
19680;DHT22;9989;48.962;9.182;2024-01-16T07:01:10;-0.10;99.90
19680;DHT22;9989;48.962;9.182;2024-01-16T07:03:35;-0.10;99.90
19680;DHT22;9989;48.962;9.182;2024-01-16T07:06:01;-0.10;99.90
19680;DHT22;9989;48.962;9.182;2024-01-16T07:08:28;-0.10;99.90
19680;DHT22;9989;48.962;9.182;2024-01-16T07:10:53;-0.10;99.90
19680;DHT22;9989;48.962;9.182;2024-01-16T07:13:19;-0.10;99.90
19680;DHT22;9989;48.962;9.182;2024-01-16T07:15:45;-0.10;99.90
19680;DHT22;9989;48.962;9.182;2024-01-16T07:18:10;-0.10;99.90
19680;DHT22;9989;48.962;9.182;2024-01-16T07:20:36;-0.10;99.90
19680;DHT22;9989;48.962;9.182;2024-01-16T07:23:02;-0.10;99.90
19680;DHT22;9989;48.962;9.182;2024-01-16T07:25:28;0.00;99.90
19680;DHT22;9989;48.962;9.182;2024-01-16T07:27:54;0.00;99.90
19680;DHT22;9989;48.962;9.182;2024-01-16T07:30:19;0.10;99.90
19680;DHT22;9989;48.962;9.182;2024-01-16T07:32:45;0.10;99.90
19680;DHT22;9989;48.962;9.182;2024-01-16T07:35:11;0.10;99.90
19680;DHT22;9989;48.962;9.182;2024-01-16T07:37:36;0.10;99.90
19680;DHT22;9989;48.962;9.182;2024-01-16T07:40:03;0.20;99.90
19680;DHT22;9989;48.962;9.182;2024-01-16T07:42:31;0.20;99.90
19680;DHT22;9989;48.962;9.182;2024-01-16T07:45:00;0.30;99.90
19680;DHT22;9989;48.962;9.182;2024-01-16T07:47:26;0.30;99.90
19680;DHT22;9989;48.962;9.182;2024-01-16T07:49:52;0.40;99.90
19680;DHT22;9989;48.962;9.182;2024-01-16T07:52:17;0.40;99.90
19680;DHT22;9989;48.962;9.182;2024-01-16T07:54:43;0.40;99.90
19680;DHT22;9989;48.962;9.182;2024-01-16T07:57:09;0.50;99.90
19680;DHT22;9989;48.962;9.182;2024-01-16T07:59:34;0.50;99.90
19680;DHT22;9989;48.962;9.182;2024-01-16T08:02:00;0.60;99.90
19680;DHT22;9989;48.962;9.182;2024-01-16T08:04:25;0.60;99.90
19680;DHT22;9989;48.962;9.182;2024-01-16T08:06:52;0.70;99.90
19680;DHT22;9989;48.962;9.182;2024-01-16T08:09:18;0.70;99.90
19680;DHT22;9989;48.962;9.182;2024-01-16T08:11:44;0.80;99.90
19680;DHT22;9989;48.962;9.182;2024-01-16T08:14:10;0.80;99.90
19680;DHT22;9989;48.962;9.182;2024-01-16T08:16:36;0.90;99.90
19680;DHT22;9989;48.962;9.182;2024-01-16T08:19:02;0.90;99.90
19680;DHT22;9989;48.962;9.182;2024-01-16T08:21:28;1.00;99.90
19680;DHT22;9989;48.962;9.182;2024-01-16T08:23:54;1.10;99.90
19680;DHT22;9989;48.962;9.182;2024-01-16T08:26:20;1.20;99.90
19680;DHT22;9989;48.962;9.182;2024-01-16T08:28:45;1.20;99.90
19680;DHT22;9989;48.962;9.182;2024-01-16T08:31:11;1.30;99.90
19680;DHT22;9989;48.962;9.182;2024-01-16T08:33:37;1.30;99.90
19680;DHT22;9989;48.962;9.182;2024-01-16T08:36:03;1.40;99.90
19680;DHT22;9989;48.962;9.182;2024-01-16T08:38:29;1.40;99.90
19680;DHT22;9989;48.962;9.182;2024-01-16T08:40:55;1.50;99.90
19680;DHT22;9989;48.962;9.182;2024-01-16T08:43:21;1.50;99.90
19680;DHT22;9989;48.962;9.182;2024-01-16T08:45:46;1.50;99.90
19680;DHT22;9989;48.962;9.182;2024-01-16T08:48:13;1.60;99.90
19680;DHT22;9989;48.962;9.182;2024-01-16T08:50:40;1.60;99.90
19680;DHT22;9989;48.962;9.182;2024-01-16T08:53:06;1.60;99.90
19680;DHT22;9989;48.962;9.182;2024-01-16T08:55:32;1.70;99.90
19680;DHT22;9989;48.962;9.182;2024-01-16T08:57:58;1.80;99.90
19680;DHT22;9989;48.962;9.182;2024-01-16T09:00:23;1.90;99.90
19680;DHT22;9989;48.962;9.182;2024-01-16T09:02:49;1.90;99.90
19680;DHT22;9989;48.962;9.182;2024-01-16T09:05:15;2.00;99.90
19680;DHT22;9989;48.962;9.182;2024-01-16T09:07:41;2.10;99.90
19680;DHT22;9989;48.962;9.182;2024-01-16T09:10:07;2.20;99.90
19680;DHT22;9989;48.962;9.182;2024-01-16T09:12:33;2.40;99.90
19680;DHT22;9989;48.962;9.182;2024-01-16T09:14:59;2.50;99.90
19680;DHT22;9989;48.962;9.182;2024-01-16T09:17:24;2.60;99.90
19680;DHT22;9989;48.962;9.182;2024-01-16T09:19:51;2.80;99.90
19680;DHT22;9989;48.962;9.182;2024-01-16T09:22:17;2.80;99.90
19680;DHT22;9989;48.962;9.182;2024-01-16T09:24:43;2.90;99.90
19680;DHT22;9989;48.962;9.182;2024-01-16T09:27:09;3.00;99.90
19680;DHT22;9989;48.962;9.182;2024-01-16T09:29:36;3.20;99.90
19680;DHT22;9989;48.962;9.182;2024-01-16T09:32:02;3.30;99.90
19680;DHT22;9989;48.962;9.182;2024-01-16T09:34:28;3.60;99.90
19680;DHT22;9989;48.962;9.182;2024-01-16T09:36:54;3.70;99.90
19680;DHT22;9989;48.962;9.182;2024-01-16T09:39:24;3.80;99.90
19680;DHT22;9989;48.962;9.182;2024-01-16T09:41:50;3.90;99.90
19680;DHT22;9989;48.962;9.182;2024-01-16T09:44:15;3.90;99.90
19680;DHT22;9989;48.962;9.182;2024-01-16T09:46:44;3.80;99.90
19680;DHT22;9989;48.962;9.182;2024-01-16T09:49:14;3.80;99.90
19680;DHT22;9989;48.962;9.182;2024-01-16T09:51:42;3.90;99.90
19680;DHT22;9989;48.962;9.182;2024-01-16T09:54:07;4.00;99.90
19680;DHT22;9989;48.962;9.182;2024-01-16T09:56:35;4.10;99.90
19680;DHT22;9989;48.962;9.182;2024-01-16T09:59:06;4.30;99.90
19680;DHT22;9989;48.962;9.182;2024-01-16T10:01:33;4.50;99.90
19680;DHT22;9989;48.962;9.182;2024-01-16T10:03:59;4.70;99.90
19680;DHT22;9989;48.962;9.182;2024-01-16T10:06:27;5.00;99.90
19680;DHT22;9989;48.962;9.182;2024-01-16T10:08:53;5.10;99.90
19680;DHT22;9989;48.962;9.182;2024-01-16T10:11:18;5.20;99.90
19680;DHT22;9989;48.962;9.182;2024-01-16T10:13:44;5.30;99.90
19680;DHT22;9989;48.962;9.182;2024-01-16T10:16:10;5.40;99.90
19680;DHT22;9989;48.962;9.182;2024-01-16T10:18:36;5.50;99.90
19680;DHT22;9989;48.962;9.182;2024-01-16T10:21:03;5.50;99.90
19680;DHT22;9989;48.962;9.182;2024-01-16T10:23:30;5.60;99.90
19680;DHT22;9989;48.962;9.182;2024-01-16T10:26:07;5.70;99.90
19680;DHT22;9989;48.962;9.182;2024-01-16T10:28:34;5.80;99.90
19680;DHT22;9989;48.962;9.182;2024-01-16T10:31:31;6.00;99.90
19680;DHT22;9989;48.962;9.182;2024-01-16T10:33:57;6.40;99.90
19680;DHT22;9989;48.962;9.182;2024-01-16T10:36:24;7.20;99.90
19680;DHT22;9989;48.962;9.182;2024-01-16T10:38:51;8.50;99.90
19680;DHT22;9989;48.962;9.182;2024-01-16T10:41:23;9.70;97.50
19680;DHT22;9989;48.962;9.182;2024-01-16T10:44:05;10.80;94.70
19680;DHT22;9989;48.962;9.182;2024-01-16T10:46:32;11.90;90.90
19680;DHT22;9989;48.962;9.182;2024-01-16T10:49:06;12.80;84.40
19680;DHT22;9989;48.962;9.182;2024-01-16T10:51:32;13.40;78.60
19680;DHT22;9989;48.962;9.182;2024-01-16T10:53:59;13.30;72.70
19680;DHT22;9989;48.962;9.182;2024-01-16T10:56:27;12.90;71.20
19680;DHT22;9989;48.962;9.182;2024-01-16T11:01:38;11.40;73.10
19680;DHT22;9989;48.962;9.182;2024-01-16T11:04:05;10.90;74.80
19680;DHT22;9989;48.962;9.182;2024-01-16T11:06:33;10.90;76.10
19680;DHT22;9989;48.962;9.182;2024-01-16T11:09:00;11.60;76.50
19680;DHT22;9989;48.962;9.182;2024-01-16T11:11:28;13.10;73.50
19680;DHT22;9989;48.962;9.182;2024-01-16T11:13:54;15.10;68.80
19680;DHT22;9989;48.962;9.182;2024-01-16T11:16:23;17.10;64.00
19680;DHT22;9989;48.962;9.182;2024-01-16T11:18:49;19.00;58.80
19680;DHT22;9989;48.962;9.182;2024-01-16T11:21:16;20.40;54.00
19680;DHT22;9989;48.962;9.182;2024-01-16T11:23:43;21.50;50.90
19680;DHT22;9989;48.962;9.182;2024-01-16T11:28:58;23.90;44.10
19680;DHT22;9989;48.962;9.182;2024-01-16T11:33:53;25.00;40.30
19680;DHT22;9989;48.962;9.182;2024-01-16T11:36:49;25.10;39.00
19680;DHT22;9989;48.962;9.182;2024-01-16T11:39:26;25.10;38.00
19680;DHT22;9989;48.962;9.182;2024-01-16T11:41:57;25.00;37.00
19680;DHT22;9989;48.962;9.182;2024-01-16T11:44:46;24.90;37.40
19680;DHT22;9989;48.962;9.182;2024-01-16T11:47:25;24.70;35.50
19680;DHT22;9989;48.962;9.182;2024-01-16T11:49:52;24.40;36.20
19680;DHT22;9989;48.962;9.182;2024-01-16T11:52:45;23.90;36.20
19680;DHT22;9989;48.962;9.182;2024-01-16T11:55:31;23.30;36.50
19680;DHT22;9989;48.962;9.182;2024-01-16T11:58:21;23.00;38.10
19680;DHT22;9989;48.962;9.182;2024-01-16T12:00:50;22.60;37.70
19680;DHT22;9989;48.962;9.182;2024-01-16T12:03:22;22.20;38.40
19680;DHT22;9989;48.962;9.182;2024-01-16T12:06:00;22.00;39.00
19680;DHT22;9989;48.962;9.182;2024-01-16T12:08:27;21.90;39.10
19680;DHT22;9989;48.962;9.182;2024-01-16T12:10:54;21.90;39.10
19680;DHT22;9989;48.962;9.182;2024-01-16T12:13:19;21.80;39.00
19680;DHT22;9989;48.962;9.182;2024-01-16T12:15:45;21.50;39.00
19680;DHT22;9989;48.962;9.182;2024-01-16T12:18:18;21.20;39.40
19680;DHT22;9989;48.962;9.182;2024-01-16T12:20:43;21.10;39.60
19680;DHT22;9989;48.962;9.182;2024-01-16T12:23:09;21.70;39.20
19680;DHT22;9989;48.962;9.182;2024-01-16T12:25:36;22.60;37.70
19680;DHT22;9989;48.962;9.182;2024-01-16T12:28:04;23.30;37.00
19680;DHT22;9989;48.962;9.182;2024-01-16T12:30:32;23.90;36.70
19680;DHT22;9989;48.962;9.182;2024-01-16T12:33:11;24.60;36.10
19680;DHT22;9989;48.962;9.182;2024-01-16T12:35:39;25.40;35.20
19680;DHT22;9989;48.962;9.182;2024-01-16T12:38:07;26.20;34.40
19680;DHT22;9989;48.962;9.182;2024-01-16T12:40:35;27.00;33.50
19680;DHT22;9989;48.962;9.182;2024-01-16T12:43:02;27.70;32.60
19680;DHT22;9989;48.962;9.182;2024-01-16T12:45:28;28.30;32.20
19680;DHT22;9989;48.962;9.182;2024-01-16T12:47:59;28.70;31.00
19680;DHT22;9989;48.962;9.182;2024-01-16T12:50:27;29.20;31.00
19680;DHT22;9989;48.962;9.182;2024-01-16T12:53:06;29.70;30.10
19680;DHT22;9989;48.962;9.182;2024-01-16T12:55:34;30.20;29.60
19680;DHT22;9989;48.962;9.182;2024-01-16T12:58:20;30.70;29.20
19680;DHT22;9989;48.962;9.182;2024-01-16T13:00:47;31.30;28.40
19680;DHT22;9989;48.962;9.182;2024-01-16T13:03:20;31.70;27.90
19680;DHT22;9989;48.962;9.182;2024-01-16T13:05:58;32.00;27.50
19680;DHT22;9989;48.962;9.182;2024-01-16T13:08:24;32.30;27.30
19680;DHT22;9989;48.962;9.182;2024-01-16T13:11:06;32.60;26.90
19680;DHT22;9989;48.962;9.182;2024-01-16T13:13:32;33.00;26.80
19680;DHT22;9989;48.962;9.182;2024-01-16T13:15:59;33.20;26.30
19680;DHT22;9989;48.962;9.182;2024-01-16T13:18:26;33.20;26.10
19680;DHT22;9989;48.962;9.182;2024-01-16T13:20:53;33.30;26.00
19680;DHT22;9989;48.962;9.182;2024-01-16T13:23:20;33.30;25.90
19680;DHT22;9989;48.962;9.182;2024-01-16T13:25:47;32.70;25.90
19680;DHT22;9989;48.962;9.182;2024-01-16T13:28:15;31.30;26.40
19680;DHT22;9989;48.962;9.182;2024-01-16T13:30:44;30.00;27.00
19680;DHT22;9989;48.962;9.182;2024-01-16T13:33:10;28.70;27.70
19680;DHT22;9989;48.962;9.182;2024-01-16T13:35:40;27.40;28.60
19680;DHT22;9989;48.962;9.182;2024-01-16T13:38:07;26.40;29.40
19680;DHT22;9989;48.962;9.182;2024-01-16T13:40:34;25.60;29.80
19680;DHT22;9989;48.962;9.182;2024-01-16T13:43:00;25.50;30.10
19680;DHT22;9989;48.962;9.182;2024-01-16T13:45:27;26.20;30.00
19680;DHT22;9989;48.962;9.182;2024-01-16T13:47:54;27.00;29.60
19680;DHT22;9989;48.962;9.182;2024-01-16T13:50:19;27.80;29.60
19680;DHT22;9989;48.962;9.182;2024-01-16T13:52:45;28.50;28.60
19680;DHT22;9989;48.962;9.182;2024-01-16T13:55:11;29.10;28.10
19680;DHT22;9989;48.962;9.182;2024-01-16T13:57:37;28.70;28.10
19680;DHT22;9989;48.962;9.182;2024-01-16T14:00:08;27.50;28.50
19680;DHT22;9989;48.962;9.182;2024-01-16T14:02:39;26.30;29.30
19680;DHT22;9989;48.962;9.182;2024-01-16T14:05:09;25.20;30.00
19680;DHT22;9989;48.962;9.182;2024-01-16T14:07:41;24.50;30.80
19680;DHT22;9989;48.962;9.182;2024-01-16T14:10:10;24.60;30.50
19680;DHT22;9989;48.962;9.182;2024-01-16T14:12:41;25.10;30.10
19680;DHT22;9989;48.962;9.182;2024-01-16T14:15:14;25.80;30.00
19680;DHT22;9989;48.962;9.182;2024-01-16T14:17:50;26.50;29.40
19680;DHT22;9989;48.962;9.182;2024-01-16T14:20:17;26.90;28.90
19680;DHT22;9989;48.962;9.182;2024-01-16T14:22:43;27.10;28.70
19680;DHT22;9989;48.962;9.182;2024-01-16T14:25:10;27.30;28.40
19680;DHT22;9989;48.962;9.182;2024-01-16T14:27:43;27.30;28.40
19680;DHT22;9989;48.962;9.182;2024-01-16T14:30:14;27.30;28.40
19680;DHT22;9989;48.962;9.182;2024-01-16T14:32:41;27.30;28.30
19680;DHT22;9989;48.962;9.182;2024-01-16T14:35:07;27.00;28.20
19680;DHT22;9989;48.962;9.182;2024-01-16T14:37:35;26.70;28.50
19680;DHT22;9989;48.962;9.182;2024-01-16T14:40:01;26.60;28.70
19680;DHT22;9989;48.962;9.182;2024-01-16T14:42:28;26.40;28.70
19680;DHT22;9989;48.962;9.182;2024-01-16T14:44:53;26.30;28.60
19680;DHT22;9989;48.962;9.182;2024-01-16T14:47:20;26.30;28.60
19680;DHT22;9989;48.962;9.182;2024-01-16T14:49:45;26.10;28.70
19680;DHT22;9989;48.962;9.182;2024-01-16T14:52:11;25.90;28.80
19680;DHT22;9989;48.962;9.182;2024-01-16T14:54:38;25.80;28.80
19680;DHT22;9989;48.962;9.182;2024-01-16T14:57:05;25.60;29.00
19680;DHT22;9989;48.962;9.182;2024-01-16T14:59:32;25.30;29.00
19680;DHT22;9989;48.962;9.182;2024-01-16T15:01:58;25.10;29.10
19680;DHT22;9989;48.962;9.182;2024-01-16T15:04:24;24.80;29.40
19680;DHT22;9989;48.962;9.182;2024-01-16T15:06:49;24.50;29.80
19680;DHT22;9989;48.962;9.182;2024-01-16T15:09:18;24.20;29.80
19680;DHT22;9989;48.962;9.182;2024-01-16T15:11:44;23.80;30.00
19680;DHT22;9989;48.962;9.182;2024-01-16T15:14:11;23.30;30.30
19680;DHT22;9989;48.962;9.182;2024-01-16T15:16:38;22.90;30.50
19680;DHT22;9989;48.962;9.182;2024-01-16T15:19:03;22.50;31.30
19680;DHT22;9989;48.962;9.182;2024-01-16T15:21:29;22.20;31.80
19680;DHT22;9989;48.962;9.182;2024-01-16T15:23:55;21.80;32.50
19680;DHT22;9989;48.962;9.182;2024-01-16T15:26:21;21.40;33.10
19680;DHT22;9989;48.962;9.182;2024-01-16T15:28:47;20.90;33.80
19680;DHT22;9989;48.962;9.182;2024-01-16T15:31:13;20.20;34.80
19680;DHT22;9989;48.962;9.182;2024-01-16T15:33:39;19.20;35.90
19680;DHT22;9989;48.962;9.182;2024-01-16T15:36:05;18.10;37.50
19680;DHT22;9989;48.962;9.182;2024-01-16T15:38:31;17.00;39.00
19680;DHT22;9989;48.962;9.182;2024-01-16T15:40:57;16.00;40.50
19680;DHT22;9989;48.962;9.182;2024-01-16T15:43:22;15.00;41.80
19680;DHT22;9989;48.962;9.182;2024-01-16T15:45:48;14.10;43.50
19680;DHT22;9989;48.962;9.182;2024-01-16T15:48:14;13.10;45.10
19680;DHT22;9989;48.962;9.182;2024-01-16T15:50:40;12.20;46.90
19680;DHT22;9989;48.962;9.182;2024-01-16T15:53:06;11.30;48.80
19680;DHT22;9989;48.962;9.182;2024-01-16T15:55:31;10.50;51.00
19680;DHT22;9989;48.962;9.182;2024-01-16T15:57:57;9.80;53.20
19680;DHT22;9989;48.962;9.182;2024-01-16T16:00:24;9.20;54.90
19680;DHT22;9989;48.962;9.182;2024-01-16T16:02:50;8.60;56.50